Time;durP1;ratioP1;P1;durP2;ratioP2;P2;SDS_P1;SDS_P2;PMS_P1;PMS_P2;Temp;Humidity;BMP_temperature;BMP_pressure;BME280_temperature;BME280_humidity;BME280_pressure;Samples;Min_cycle;Max_cycle;Signal;HPM_P1;HPM_P2
2021/11/18 00:00:17;;;;;;;7.05;4.53;;;;;;;;;;5015072;28;20083;-52
2021/11/18 00:02:44;;;;;;;4.80;4.30;;;;;;;;;;5014404;28;20030;-51
2021/11/18 00:05:12;;;;;;;5.28;4.72;;;;;;;;;;5014683;28;20037;-48
2021/11/18 00:07:45;;;;;;;5.05;4.25;;;;;;;;;;5015731;28;20061;-54
2021/11/18 00:10:13;;;;;;;5.38;4.15;;;;;;;;;;5014263;28;20099;-54
2021/11/18 00:12:39;;;;;;;8.25;4.45;;;;;;;;;;5011196;28;20038;-50
2021/11/18 00:15:06;;;;;;;5.68;3.95;;;;;;;;;;5018400;28;20045;-53
2021/11/18 00:17:31;;;;;;;5.60;4.05;;;;;;;;;;5014691;28;20026;-53
2021/11/18 00:19:57;;;;;;;4.53;3.72;;;;;;;;;;5015101;28;20038;-53
2021/11/18 00:22:22;;;;;;;4.20;3.80;;;;;;;;;;5021013;28;20120;-53
2021/11/18 00:24:47;;;;;;;4.35;3.30;;;;;;;;;;5013048;28;20058;-50
2021/11/18 00:27:13;;;;;;;3.90;3.17;;;;;;;;;;5015885;28;20448;-53
2021/11/18 00:29:38;;;;;;;5.75;4.30;;;;;;;;;;5010601;28;20605;-51
2021/11/18 00:32:04;;;;;;;5.68;4.32;;;;;;;;;;5014827;28;20172;-51
2021/11/18 00:34:29;;;;;;;5.32;4.07;;;;;;;;;;5017342;28;20073;-50
2021/11/18 00:36:55;;;;;;;5.45;4.30;;;;;;;;;;5010885;28;20034;-57
2021/11/18 00:39:20;;;;;;;4.65;3.65;;;;;;;;;;5016199;28;20080;-59
2021/11/18 00:41:45;;;;;;;4.90;4.38;;;;;;;;;;5013627;28;20033;-58
2021/11/18 00:44:11;;;;;;;6.32;3.97;;;;;;;;;;5011690;28;20463;-57
2021/11/18 00:46:36;;;;;;;5.40;4.32;;;;;;;;;;5014608;28;20030;-57
2021/11/18 00:49:03;;;;;;;3.38;2.97;;;;;;;;;;5016810;28;20093;-58
2021/11/18 00:51:29;;;;;;;4.38;3.97;;;;;;;;;;5015881;28;20041;-58
2021/11/18 00:53:58;;;;;;;6.60;4.65;;;;;;;;;;5016322;28;20036;-59
2021/11/18 00:56:25;;;;;;;5.03;3.95;;;;;;;;;;5019963;28;20030;-58
2021/11/18 00:58:53;;;;;;;5.00;3.78;;;;;;;;;;5016162;28;20049;-52
2021/11/18 01:01:21;;;;;;;6.85;4.50;;;;;;;;;;5016197;28;20107;-52
2021/11/18 01:03:47;;;;;;;5.00;4.13;;;;;;;;;;5015032;28;20029;-50
2021/11/18 01:06:12;;;;;;;4.38;3.97;;;;;;;;;;5014579;28;20037;-53
2021/11/18 01:08:38;;;;;;;4.60;3.95;;;;;;;;;;5016263;28;20112;-53
2021/11/18 01:11:18;;;;;;;4.82;4.32;;;;;;;;;;5015666;28;20199;-51
2021/11/18 01:13:45;;;;;;;9.20;4.72;;;;;;;;;;5015533;28;20099;-50
2021/11/18 01:16:13;;;;;;;5.30;3.85;;;;;;;;;;5013803;28;20030;-50
2021/11/18 01:18:39;;;;;;;5.00;4.50;;;;;;;;;;5014843;28;20040;-51
2021/11/18 01:21:05;;;;;;;5.85;4.63;;;;;;;;;;5015010;28;20042;-54
2021/11/18 01:23:35;;;;;;;4.90;4.13;;;;;;;;;;5010627;28;20045;-54
2021/11/18 01:26:03;;;;;;;5.70;4.35;;;;;;;;;;5013101;28;20092;-51
2021/11/18 01:28:28;;;;;;;5.85;3.92;;;;;;;;;;5012618;28;20124;-53
2021/11/18 01:30:54;;;;;;;5.35;3.88;;;;;;;;;;5014596;28;20121;-52
2021/11/18 01:33:20;;;;;;;5.32;4.30;;;;;;;;;;5011754;28;20051;-54
2021/11/18 01:35:48;;;;;;;7.97;4.32;;;;;;;;;;5011871;28;20041;-52
2021/11/18 01:38:15;;;;;;;5.97;4.28;;;;;;;;;;5012252;28;20375;-55
2021/11/18 01:40:48;;;;;;;5.85;4.10;;;;;;;;;;5012446;28;20045;-50
2021/11/18 01:43:15;;;;;;;4.78;3.28;;;;;;;;;;5013566;28;20048;-53
2021/11/18 01:52:45;;;;;;;6.57;4.90;;;;;;;;;;5009032;28;20068;-51
2021/11/18 01:55:12;;;;;;;8.70;4.50;;;;;;;;;;5011859;28;20053;-52
2021/11/18 01:57:37;;;;;;;4.65;4.10;;;;;;;;;;5014379;28;20026;-53
2021/11/18 02:00:11;;;;;;;7.47;4.70;;;;;;;;;;5014958;28;20092;-52
2021/11/18 02:02:37;;;;;;;8.13;4.20;;;;;;;;;;5014070;28;20472;-53
2021/11/18 02:05:14;;;;;;;6.35;5.05;;;;;;;;;;5013743;28;20069;-59
2021/11/18 02:07:41;;;;;;;6.35;4.70;;;;;;;;;;5012738;28;20030;-59
2021/11/18 02:10:08;;;;;;;5.50;4.32;;;;;;;;;;5012061;28;20080;-54
2021/11/18 02:12:35;;;;;;;6.15;3.63;;;;;;;;;;5016714;28;20029;-53
2021/11/18 02:15:00;;;;;;;10.75;4.10;;;;;;;;;;5018405;28;20049;-50
2021/11/18 02:17:28;;;;;;;9.60;5.63;;;;;;;;;;5008837;28;20034;-54
2021/11/18 02:19:59;;;;;;;5.35;3.55;;;;;;;;;;5009083;28;20104;-54
2021/11/18 02:22:25;;;;;;;9.23;4.30;;;;;;;;;;5014861;28;20056;-53
2021/11/18 02:24:58;;;;;;;5.38;3.80;;;;;;;;;;5017052;28;20398;-55
2021/11/18 02:27:26;;;;;;;7.15;4.93;;;;;;;;;;5015453;28;20018;-51
2021/11/18 02:29:54;;;;;;;4.72;3.90;;;;;;;;;;5018837;28;20375;-52
2021/11/18 02:32:39;;;;;;;4.07;3.55;;;;;;;;;;5016897;28;20475;-54
2021/11/18 02:35:21;;;;;;;11.05;5.68;;;;;;;;;;5015750;28;20048;-53
2021/11/18 02:37:49;;;;;;;5.80;4.68;;;;;;;;;;5017068;28;20080;-54
2021/11/18 02:40:15;;;;;;;5.93;5.03;;;;;;;;;;5012266;28;20025;-59
2021/11/18 02:42:42;;;;;;;5.38;3.50;;;;;;;;;;5015618;28;20534;-60
2021/11/18 02:45:12;;;;;;;5.72;3.65;;;;;;;;;;5017643;28;20049;-52
2021/11/18 02:47:38;;;;;;;5.38;4.28;;;;;;;;;;5017138;28;20091;-51
2021/11/18 02:50:06;;;;;;;4.78;3.95;;;;;;;;;;5016743;28;20038;-52
2021/11/18 02:52:33;;;;;;;7.38;4.95;;;;;;;;;;5013484;28;20091;-59
2021/11/18 02:55:04;;;;;;;4.30;3.58;;;;;;;;;;5014336;28;20269;-50
2021/11/18 02:57:31;;;;;;;4.28;3.67;;;;;;;;;;5017477;28;20379;-51
2021/11/18 02:59:57;;;;;;;5.25;4.18;;;;;;;;;;5016301;28;20025;-52
2021/11/18 03:02:24;;;;;;;5.00;4.50;;;;;;;;;;5017384;28;20061;-59
2021/11/18 03:04:50;;;;;;;6.57;3.97;;;;;;;;;;5014109;28;20121;-59
2021/11/18 03:07:15;;;;;;;3.47;3.08;;;;;;;;;;5012708;28;20523;-55
2021/11/18 03:09:41;;;;;;;8.02;4.55;;;;;;;;;;5018561;28;20129;-53
2021/11/18 03:12:06;;;;;;;5.97;4.47;;;;;;;;;;5015985;28;20529;-53
2021/11/18 03:14:32;;;;;;;4.00;3.60;;;;;;;;;;5013825;28;20567;-51
2021/11/18 03:16:58;;;;;;;6.07;4.63;;;;;;;;;;5010764;28;20468;-51
2021/11/18 03:19:23;;;;;;;6.60;5.05;;;;;;;;;;5010640;28;20034;-52
2021/11/18 03:21:50;;;;;;;5.10;3.90;;;;;;;;;;5014205;28;20119;-53
2021/11/18 03:24:15;;;;;;;3.30;2.85;;;;;;;;;;5021625;28;20102;-53
2021/11/18 03:26:41;;;;;;;3.92;3.50;;;;;;;;;;5017730;28;20057;-54
2021/11/18 03:29:08;;;;;;;4.78;3.53;;;;;;;;;;5015634;28;20486;-50
2021/11/18 03:31:33;;;;;;;9.10;5.70;;;;;;;;;;5016766;28;20052;-54
2021/11/18 03:34:06;;;;;;;5.75;3.90;;;;;;;;;;5016450;28;20037;-52
2021/11/18 03:36:32;;;;;;;6.82;4.53;;;;;;;;;;5015743;28;20029;-56
2021/11/18 03:38:59;;;;;;;3.90;3.42;;;;;;;;;;5017213;28;20072;-54
2021/11/18 03:41:28;;;;;;;6.95;5.68;;;;;;;;;;5014085;28;20112;-50
2021/11/18 03:43:57;;;;;;;4.55;4.15;;;;;;;;;;5015836;28;20032;-55
2021/11/18 03:46:27;;;;;;;8.00;4.10;;;;;;;;;;5013440;28;20056;-55
2021/11/18 03:48:53;;;;;;;5.22;4.30;;;;;;;;;;5015631;28;20506;-59
2021/11/18 03:51:19;;;;;;;5.30;4.28;;;;;;;;;;5015902;28;20029;-59
2021/11/18 03:53:44;;;;;;;5.18;4.13;;;;;;;;;;5016347;28;20671;-59
2021/11/18 03:56:14;;;;;;;5.10;4.07;;;;;;;;;;5015511;28;20033;-60
2021/11/18 03:58:40;;;;;;;4.93;4.43;;;;;;;;;;5016591;28;20117;-60
2021/11/18 04:01:05;;;;;;;12.63;3.92;;;;;;;;;;5017560;28;20427;-59
2021/11/18 04:03:32;;;;;;;7.60;4.85;;;;;;;;;;5016671;28;20040;-59
2021/11/18 04:05:58;;;;;;;5.38;4.35;;;;;;;;;;5014198;28;20042;-59
2021/11/18 04:08:24;;;;;;;6.05;3.83;;;;;;;;;;5013473;28;20034;-59
2021/11/18 04:10:50;;;;;;;4.70;3.35;;;;;;;;;;4999876;28;20048;-51
2021/11/18 04:13:15;;;;;;;7.93;4.63;;;;;;;;;;5015290;28;20105;-54
2021/11/18 04:15:42;;;;;;;6.72;5.15;;;;;;;;;;5018972;28;20065;-54
2021/11/18 04:18:09;;;;;;;4.55;3.80;;;;;;;;;;5016366;28;20052;-59
2021/11/18 04:20:35;;;;;;;6.05;4.25;;;;;;;;;;5014936;28;20494;-59
2021/11/18 04:23:02;;;;;;;5.53;4.22;;;;;;;;;;5016025;28;20061;-59
2021/11/18 04:25:31;;;;;;;7.55;4.38;;;;;;;;;;5015022;28;20056;-59
2021/11/18 04:27:59;;;;;;;3.90;3.42;;;;;;;;;;5015094;28;20471;-59
2021/11/18 04:30:30;;;;;;;6.05;3.97;;;;;;;;;;5009490;28;20053;-59
2021/11/18 04:32:56;;;;;;;8.32;4.45;;;;;;;;;;5013803;28;20033;-59
2021/11/18 04:35:21;;;;;;;5.15;4.45;;;;;;;;;;5014209;28;20478;-59
2021/11/18 04:37:47;;;;;;;12.15;5.03;;;;;;;;;;5014754;28;20524;-59
2021/11/18 04:40:12;;;;;;;5.07;3.75;;;;;;;;;;5015156;28;20030;-54
2021/11/18 04:42:40;;;;;;;11.93;3.90;;;;;;;;;;5015598;28;20029;-53
2021/11/18 04:45:06;;;;;;;5.57;4.97;;;;;;;;;;5012733;28;20034;-59
2021/11/18 04:47:31;;;;;;;4.75;3.85;;;;;;;;;;5014719;28;20038;-59
2021/11/18 04:49:57;;;;;;;4.45;3.25;;;;;;;;;;5015231;28;20173;-59
2021/11/18 04:52:22;;;;;;;5.13;3.75;;;;;;;;;;5016935;28;20456;-59
2021/11/18 04:54:48;;;;;;;3.72;3.22;;;;;;;;;;5016718;28;20029;-51
2021/11/18 04:57:14;;;;;;;6.45;4.47;;;;;;;;;;5018335;28;20443;-54
2021/11/18 04:59:39;;;;;;;5.47;4.32;;;;;;;;;;5014493;28;20042;-50
2021/11/18 05:02:05;;;;;;;5.10;4.07;;;;;;;;;;5012188;28;20092;-51
2021/11/18 05:04:30;;;;;;;5.88;4.53;;;;;;;;;;5015999;28;20095;-54
2021/11/18 05:06:56;;;;;;;5.63;4.10;;;;;;;;;;5012126;28;20644;-53
2021/11/18 05:09:21;;;;;;;6.13;4.30;;;;;;;;;;5017546;28;20038;-54
2021/11/18 05:11:47;;;;;;;5.22;4.20;;;;;;;;;;5019679;28;20637;-59
2021/11/18 05:14:12;;;;;;;4.63;4.20;;;;;;;;;;5015308;28;20146;-59
2021/11/18 05:16:39;;;;;;;8.30;4.80;;;;;;;;;;5015561;28;20038;-53
2021/11/18 05:19:04;;;;;;;5.50;3.47;;;;;;;;;;5013979;28;20029;-54
2021/11/18 05:21:31;;;;;;;6.53;4.57;;;;;;;;;;5014298;28;20507;-54
2021/11/18 05:24:00;;;;;;;6.88;4.53;;;;;;;;;;5012796;28;20026;-52
2021/11/18 05:26:26;;;;;;;11.73;4.10;;;;;;;;;;5016088;28;20034;-53
2021/11/18 05:28:53;;;;;;;8.88;4.78;;;;;;;;;;5015713;28;20025;-52
2021/11/18 05:31:21;;;;;;;8.77;7.38;;;;;;;;;;5010720;28;20529;-53
2021/11/18 05:33:47;;;;;;;6.00;4.38;;;;;;;;;;5008554;28;20034;-59
2021/11/18 05:36:13;;;;;;;7.38;5.05;;;;;;;;;;5010857;28;20084;-59
2021/11/18 05:38:39;;;;;;;5.45;3.75;;;;;;;;;;5014188;28;20119;-59
2021/11/18 05:41:05;;;;;;;4.50;3.38;;;;;;;;;;5016239;28;20088;-60
2021/11/18 05:43:35;;;;;;;4.20;3.80;;;;;;;;;;5011963;28;20459;-60
2021/11/18 05:46:01;;;;;;;3.97;3.58;;;;;;;;;;5015908;28;20029;-52
2021/11/18 05:48:26;;;;;;;4.47;3.88;;;;;;;;;;5019951;28;20367;-54
2021/11/18 05:50:55;;;;;;;4.93;3.85;;;;;;;;;;5018408;28;20048;-55
2021/11/18 05:53:25;;;;;;;4.95;3.47;;;;;;;;;;5018494;28;20099;-53
2021/11/18 05:55:55;;;;;;;7.00;4.85;;;;;;;;;;5015308;28;20154;-53
2021/11/18 05:58:20;;;;;;;4.95;4.20;;;;;;;;;;5015428;28;20025;-53
2021/11/18 06:00:46;;;;;;;5.30;4.38;;;;;;;;;;5018114;28;20056;-53
2021/11/18 06:03:11;;;;;;;5.40;3.88;;;;;;;;;;5018110;28;20039;-54
2021/11/18 06:05:37;;;;;;;5.22;4.18;;;;;;;;;;5015684;28;20045;-51
2021/11/18 06:08:03;;;;;;;5.50;4.07;;;;;;;;;;5021495;28;20044;-50
2021/11/18 06:10:33;;;;;;;4.78;4.03;;;;;;;;;;5020411;28;20041;-59
2021/11/18 06:12:58;;;;;;;4.57;3.97;;;;;;;;;;5018430;28;20035;-50
2021/11/18 06:15:25;;;;;;;5.43;4.22;;;;;;;;;;5016039;28;20030;-58
2021/11/18 06:17:51;;;;;;;5.03;4.45;;;;;;;;;;5017845;28;20064;-58
2021/11/18 06:20:16;;;;;;;4.13;3.45;;;;;;;;;;5021111;28;20069;-58
2021/11/18 06:22:43;;;;;;;5.65;3.97;;;;;;;;;;5014462;28;20053;-51
2021/11/18 06:25:12;;;;;;;4.30;3.70;;;;;;;;;;5020205;28;20036;-52
2021/11/18 06:27:41;;;;;;;6.65;4.85;;;;;;;;;;5013294;28;20057;-53
2021/11/18 06:30:10;;;;;;;4.95;4.43;;;;;;;;;;5016253;28;20423;-53
2021/11/18 06:32:36;;;;;;;4.18;3.58;;;;;;;;;;5014377;28;20030;-52
2021/11/18 06:35:01;;;;;;;5.38;4.07;;;;;;;;;;5020205;28;20091;-54
2021/11/18 06:37:27;;;;;;;6.72;4.68;;;;;;;;;;5014907;28;20671;-55
2021/11/18 06:39:52;;;;;;;7.00;4.50;;;;;;;;;;5018983;28;20045;-52
2021/11/18 06:42:17;;;;;;;7.82;5.95;;;;;;;;;;5014672;28;20040;-54
2021/11/18 06:44:43;;;;;;;7.22;4.43;;;;;;;;;;5017267;28;20041;-55
2021/11/18 06:47:09;;;;;;;9.27;5.25;;;;;;;;;;5015838;28;20483;-54
2021/11/18 06:49:36;;;;;;;5.60;4.32;;;;;;;;;;5018094;28;20117;-55
2021/11/18 06:52:02;;;;;;;4.43;3.63;;;;;;;;;;5015921;28;20048;-55
2021/11/18 06:54:28;;;;;;;4.63;4.22;;;;;;;;;;5021241;28;20029;-55
2021/11/18 06:56:53;;;;;;;6.70;4.95;;;;;;;;;;5018569;28;20026;-52
2021/11/18 06:59:18;;;;;;;4.57;3.95;;;;;;;;;;5018605;28;20495;-53
2021/11/18 07:01:45;;;;;;;4.78;4.07;;;;;;;;;;5015201;28;20034;-54
2021/11/18 07:04:12;;;;;;;8.00;4.97;;;;;;;;;;5017691;28;20137;-55
2021/11/18 07:06:38;;;;;;;5.25;3.67;;;;;;;;;;5019310;28;20116;-53
2021/11/18 07:09:08;;;;;;;9.00;4.28;;;;;;;;;;5016046;28;20059;-53
2021/11/18 07:11:34;;;;;;;5.03;4.33;;;;;;;;;;5016769;28;20613;-53
2021/11/18 07:14:00;;;;;;;7.40;4.25;;;;;;;;;;5017839;28;20022;-54
2021/11/18 07:16:26;;;;;;;6.18;4.88;;;;;;;;;;5017468;28;20064;-52
2021/11/18 07:18:52;;;;;;;7.28;5.53;;;;;;;;;;5015383;28;20478;-54
2021/11/18 07:21:22;;;;;;;4.50;4.00;;;;;;;;;;5016925;28;20077;-53
2021/11/18 07:23:49;;;;;;;5.60;4.07;;;;;;;;;;5016974;28;20345;-58
2021/11/18 07:26:14;;;;;;;4.40;3.78;;;;;;;;;;5019852;28;20080;-58
2021/11/18 07:28:40;;;;;;;10.85;3.47;;;;;;;;;;5015811;28;20030;-59
2021/11/18 07:31:08;;;;;;;4.18;3.67;;;;;;;;;;5017291;28;20041;-58
2021/11/18 07:33:34;;;;;;;4.82;4.22;;;;;;;;;;5017647;28;20490;-58
2021/11/18 07:36:00;;;;;;;5.15;3.85;;;;;;;;;;5018130;28;20037;-58
2021/11/18 07:38:28;;;;;;;7.22;3.88;;;;;;;;;;5014573;28;20057;-58
2021/11/18 07:40:53;;;;;;;5.72;4.55;;;;;;;;;;5014453;28;20133;-58
2021/11/18 07:43:26;;;;;;;5.70;4.72;;;;;;;;;;5015174;28;20482;-58
2021/11/18 07:45:54;;;;;;;3.92;2.83;;;;;;;;;;5016114;28;20045;-55
2021/11/18 07:48:19;;;;;;;4.38;3.65;;;;;;;;;;5014128;28;20042;-53
2021/11/18 07:50:46;;;;;;;4.70;3.97;;;;;;;;;;5014981;28;20344;-59
2021/11/18 07:53:14;;;;;;;5.25;4.05;;;;;;;;;;5016344;28;20030;-59
2021/11/18 07:55:40;;;;;;;4.20;3.45;;;;;;;;;;5015799;28;20395;-59
2021/11/18 07:58:06;;;;;;;4.85;4.18;;;;;;;;;;5016536;28;20029;-59
2021/11/18 08:00:31;;;;;;;5.65;5.07;;;;;;;;;;5014206;28;20045;-55
2021/11/18 08:02:56;;;;;;;5.10;4.63;;;;;;;;;;5016335;28;20116;-55
2021/11/18 08:05:23;;;;;;;5.25;4.53;;;;;;;;;;5016348;28;20153;-55
2021/11/18 08:07:49;;;;;;;6.15;4.32;;;;;;;;;;5016326;28;20034;-54
2021/11/18 08:10:14;;;;;;;4.72;4.22;;;;;;;;;;5013357;28;20060;-55
2021/11/18 08:12:41;;;;;;;6.07;4.57;;;;;;;;;;5014755;28;20043;-55
2021/11/18 08:15:10;;;;;;;4.50;3.55;;;;;;;;;;5014662;28;20030;-55
2021/11/18 08:17:37;;;;;;;5.18;4.38;;;;;;;;;;5016417;28;20118;-55
2021/11/18 08:20:04;;;;;;;4.43;3.88;;;;;;;;;;5016304;28;20367;-56
2021/11/18 08:22:30;;;;;;;4.32;3.15;;;;;;;;;;5011969;28;20133;-54
2021/11/18 08:24:55;;;;;;;5.28;4.78;;;;;;;;;;5016875;28;20039;-56
2021/11/18 08:27:20;;;;;;;5.65;4.05;;;;;;;;;;5015162;28;20333;-56
2021/11/18 08:29:47;;;;;;;7.88;4.82;;;;;;;;;;5013625;28;20057;-55
2021/11/18 08:32:14;;;;;;;4.97;4.15;;;;;;;;;;5017401;28;20418;-55
2021/11/18 08:34:39;;;;;;;5.32;4.50;;;;;;;;;;5015917;28;20483;-56
2021/11/18 08:37:06;;;;;;;6.35;4.68;;;;;;;;;;5014590;28;20061;-55
2021/11/18 08:39:32;;;;;;;5.10;4.18;;;;;;;;;;5013841;28;20034;-55
2021/11/18 08:42:01;;;;;;;4.18;3.30;;;;;;;;;;5015339;28;20029;-55
2021/11/18 08:44:29;;;;;;;5.28;4.18;;;;;;;;;;5012232;28;20049;-56
2021/11/18 08:46:56;;;;;;;5.53;4.50;;;;;;;;;;5015289;28;20109;-56
2021/11/18 08:49:22;;;;;;;9.65;5.60;;;;;;;;;;5016301;28;20025;-56
2021/11/18 08:51:48;;;;;;;4.85;3.88;;;;;;;;;;5014180;28;20136;-56
2021/11/18 08:54:20;;;;;;;6.13;4.85;;;;;;;;;;5014290;28;20513;-56
2021/11/18 08:56:46;;;;;;;;;;;;;;;;;;5014010;28;20363;-56
2021/11/18 08:59:11;;;;;;;5.57;4.20;;;;;;;;;;5015415;28;19916;-54
2021/11/18 09:01:45;;;;;;;6.68;5.28;;;;;;;;;;5018530;28;20033;-56
2021/11/18 09:04:14;;;;;;;3.90;3.50;;;;;;;;;;5016089;28;20615;-55
2021/11/18 09:06:40;;;;;;;5.05;4.32;;;;;;;;;;5012986;28;20193;-56
2021/11/18 09:09:07;;;;;;;5.07;4.57;;;;;;;;;;5015308;28;20116;-56
2021/11/18 09:11:34;;;;;;;5.47;4.78;;;;;;;;;;5013273;28;20044;-56
2021/11/18 09:14:01;;;;;;;5.50;4.55;;;;;;;;;;5015246;28;20029;-57
2021/11/18 09:16:27;;;;;;;6.53;4.68;;;;;;;;;;5009078;28;20025;-56
2021/11/18 09:18:53;;;;;;;5.60;4.35;;;;;;;;;;5012568;28;20556;-59
2021/11/18 09:21:22;;;;;;;5.60;4.70;;;;;;;;;;5011319;28;20040;-59
2021/11/18 09:23:52;;;;;;;6.03;4.40;;;;;;;;;;5030931;28;20042;-59
2021/11/18 09:26:19;;;;;;;7.78;5.03;;;;;;;;;;5012495;28;20033;-59
2021/11/18 09:28:45;;;;;;;8.60;4.60;;;;;;;;;;5015030;28;20038;-59
2021/11/18 09:31:13;;;;;;;6.03;4.45;;;;;;;;;;5013978;28;20867;-58
2021/11/18 09:33:38;;;;;;;8.05;4.40;;;;;;;;;;5016985;28;20045;-59
2021/11/18 09:36:07;;;;;;;6.43;5.18;;;;;;;;;;5009846;28;20099;-58
2021/11/18 09:38:36;;;;;;;13.02;6.35;;;;;;;;;;5012385;28;20488;-58
2021/11/18 09:41:18;;;;;;;5.85;4.90;;;;;;;;;;5013483;28;20406;-58
2021/11/18 09:44:18;;;;;;;5.68;4.90;;;;;;;;;;5016093;28;20489;-58
2021/11/18 09:47:03;;;;;;;6.38;4.88;;;;;;;;;;5014476;28;20124;-59
2021/11/18 09:49:37;;;;;;;7.15;5.07;;;;;;;;;;5013741;28;20501;-59
2021/11/18 09:52:08;;;;;;;4.97;3.80;;;;;;;;;;5013559;28;20099;-59
2021/11/18 09:54:43;;;;;;;5.95;5.32;;;;;;;;;;5014292;28;20041;-59
2021/11/18 09:57:17;;;;;;;9.32;5.00;;;;;;;;;;5014653;28;20072;-58
2021/11/18 09:59:47;;;;;;;7.82;5.55;;;;;;;;;;5012902;28;20033;-58
2021/11/18 10:02:30;;;;;;;8.18;5.35;;;;;;;;;;5014272;28;20084;-58
2021/11/18 10:05:00;;;;;;;5.22;4.38;;;;;;;;;;5014189;28;20145;-59
2021/11/18 10:07:43;;;;;;;11.20;5.55;;;;;;;;;;5013104;28;20041;-59
2021/11/18 10:10:18;;;;;;;5.82;4.97;;;;;;;;;;4999239;28;20249;-59
2021/11/18 10:13:18;;;;;;;7.32;5.35;;;;;;;;;;5012299;28;20026;-59
2021/11/18 10:15:52;;;;;;;5.72;4.68;;;;;;;;;;4984753;28;20057;-58
2021/11/18 10:18:25;;;;;;;5.65;4.85;;;;;;;;;;5008101;28;20033;-58
2021/11/18 10:20:59;;;;;;;5.93;5.18;;;;;;;;;;5013148;28;20049;-58
2021/11/18 10:23:24;;;;;;;6.55;5.38;;;;;;;;;;5013251;28;20034;-58
2021/11/18 10:25:55;;;;;;;7.55;6.75;;;;;;;;;;5008013;28;20424;-58
2021/11/18 10:28:21;;;;;;;5.70;3.95;;;;;;;;;;5002724;28;20740;-58
2021/11/18 10:30:54;;;;;;;7.72;5.53;;;;;;;;;;5005081;28;20050;-58
2021/11/18 10:33:37;;;;;;;7.03;4.78;;;;;;;;;;5008866;28;20049;-58
2021/11/18 10:36:32;;;;;;;6.28;4.38;;;;;;;;;;5013096;28;20041;-58
2021/11/18 10:39:10;;;;;;;6.65;4.93;;;;;;;;;;5015818;28;20026;-58
2021/11/18 10:41:36;;;;;;;6.25;4.50;;;;;;;;;;5016843;28;20038;-58
2021/11/18 10:44:21;;;;;;;12.65;6.00;;;;;;;;;;5012794;28;20037;-58
2021/11/18 10:46:58;;;;;;;5.65;4.60;;;;;;;;;;5009324;28;20038;-55
2021/11/18 10:49:40;;;;;;;5.85;5.13;;;;;;;;;;5013130;28;20539;-56
2021/11/18 10:52:18;;;;;;;7.30;5.65;;;;;;;;;;5011706;28;20120;-55
2021/11/18 10:54:50;;;;;;;6.00;5.40;;;;;;;;;;5011921;28;20036;-53
2021/11/18 10:57:23;;;;;;;5.13;4.50;;;;;;;;;;5010002;28;20033;-55
2021/11/18 10:59:52;;;;;;;8.98;5.70;;;;;;;;;;5014955;28;20464;-57
2021/11/18 11:02:23;;;;;;;9.48;6.22;;;;;;;;;;5016099;28;20091;-55
2021/11/18 11:04:53;;;;;;;7.65;5.18;;;;;;;;;;5014912;28;20034;-57
2021/11/18 11:07:36;;;;;;;6.83;4.93;;;;;;;;;;5015991;28;20042;-56
2021/11/18 11:10:05;;;;;;;8.13;5.65;;;;;;;;;;5015523;28;20307;-56
2021/11/18 11:12:34;;;;;;;6.00;5.05;;;;;;;;;;5013060;28;20507;-55
2021/11/18 11:15:18;;;;;;;5.40;4.35;;;;;;;;;;5018664;28;20041;-55
2021/11/18 11:17:58;;;;;;;8.15;4.38;;;;;;;;;;5007621;28;20415;-56
2021/11/18 11:20:29;;;;;;;4.53;4.10;;;;;;;;;;5015612;28;20879;-58
2021/11/18 11:23:04;;;;;;;5.47;4.93;;;;;;;;;;5010733;28;20129;-58
2021/11/18 11:25:52;;;;;;;5.68;4.45;;;;;;;;;;5015238;28;20586;-59
2021/11/18 11:28:51;;;;;;;5.35;4.85;;;;;;;;;;5017167;28;20491;-58
2021/11/18 11:31:25;;;;;;;5.97;5.25;;;;;;;;;;5015300;28;20029;-59
2021/11/18 11:33:57;;;;;;;6.10;5.50;;;;;;;;;;5016348;28;20042;-59
2021/11/18 11:36:24;;;;;;;;;;;;;;;;;;5013280;28;20554;-58
2021/11/18 11:39:04;;;;;;;7.38;5.53;;;;;;;;;;5021345;28;19924;-59
2021/11/18 11:41:47;;;;;;;5.53;4.25;;;;;;;;;;5017758;28;20068;-59
2021/11/18 11:44:28;;;;;;;4.95;4.38;;;;;;;;;;5018778;28;20064;-59
2021/11/18 11:46:58;;;;;;;4.93;4.35;;;;;;;;;;5017626;28;20029;-59
2021/11/18 11:49:26;;;;;;;5.65;4.28;;;;;;;;;;5014138;28;20096;-59
2021/11/18 11:52:14;;;;;;;6.60;4.30;;;;;;;;;;5014825;28;20060;-59
2021/11/18 11:55:16;;;;;;;9.30;5.35;;;;;;;;;;5015482;28;20034;-59
2021/11/18 11:58:16;;;;;;;4.82;4.00;;;;;;;;;;5016257;28;20025;-59
2021/11/18 12:01:03;;;;;;;5.60;3.80;;;;;;;;;;5014350;28;20057;-56
2021/11/18 12:03:31;;;;;;;5.05;4.03;;;;;;;;;;5018980;28;20129;-53
2021/11/18 12:06:12;;;;;;;4.80;4.32;;;;;;;;;;5016551;28;20049;-56
2021/11/18 12:08:40;;;;;;;5.05;4.40;;;;;;;;;;5015418;28;20037;-59
2021/11/18 12:11:14;;;;;;;7.55;4.45;;;;;;;;;;5016300;28;20022;-59
2021/11/18 12:14:29;;;;;;;4.20;3.63;;;;;;;;;;5012466;28;20132;-59
2021/11/18 12:17:09;;;;;;;4.30;3.90;;;;;;;;;;5010893;28;20076;-59
2021/11/18 12:19:46;;;;;;;5.13;4.63;;;;;;;;;;5013054;28;20121;-59
2021/11/18 12:22:49;;;;;;;4.60;4.10;;;;;;;;;;5013785;28;20041;-59
2021/11/18 12:25:20;;;;;;;6.63;4.55;;;;;;;;;;5015090;28;20144;-55
2021/11/18 12:27:48;;;;;;;4.10;3.70;;;;;;;;;;5017008;28;20406;-56
2021/11/18 12:30:16;;;;;;;3.97;3.53;;;;;;;;;;5012987;28;20420;-53
2021/11/18 12:33:00;;;;;;;8.00;5.38;;;;;;;;;;5014313;28;20036;-55
2021/11/18 12:35:28;;;;;;;9.65;3.88;;;;;;;;;;5015654;28;20095;-56
2021/11/18 12:37:57;;;;;;;5.35;4.60;;;;;;;;;;5017620;28;20044;-55
2021/11/18 12:40:42;;;;;;;4.05;3.60;;;;;;;;;;5015187;28;20042;-54
2021/11/18 12:43:30;;;;;;;4.25;3.85;;;;;;;;;;5016597;28;20045;-59
2021/11/18 12:46:13;;;;;;;4.60;3.70;;;;;;;;;;5016037;28;20052;-57
2021/11/18 12:48:54;;;;;;;4.97;3.47;;;;;;;;;;5016258;28;20076;-59
2021/11/18 12:51:43;;;;;;;7.32;3.97;;;;;;;;;;5015201;28;20049;-59
2021/11/18 12:54:09;;;;;;;5.50;3.45;;;;;;;;;;5016452;28;20116;-57
2021/11/18 12:57:11;;;;;;;6.60;3.75;;;;;;;;;;5013701;28;20088;-54
2021/11/18 12:59:37;;;;;;;3.40;3.08;;;;;;;;;;4998209;28;20141;-55
2021/11/18 13:02:08;;;;;;;4.72;3.45;;;;;;;;;;5011079;28;20117;-54
2021/11/18 13:04:58;;;;;;;3.53;3.22;;;;;;;;;;5011167;28;20502;-55
2021/11/18 13:07:48;;;;;;;4.00;2.88;;;;;;;;;;4993439;28;20113;-55
2021/11/18 13:10:16;;;;;;;3.35;2.80;;;;;;;;;;5017044;28;20108;-55
2021/11/18 13:13:01;;;;;;;4.05;2.88;;;;;;;;;;5016081;28;20113;-55
2021/11/18 13:15:47;;;;;;;4.22;3.83;;;;;;;;;;5007051;28;20057;-54
2021/11/18 13:18:30;;;;;;;3.50;2.88;;;;;;;;;;5013428;28;20591;-52
2021/11/18 13:21:19;;;;;;;4.20;3.80;;;;;;;;;;5010873;28;20038;-54
2021/11/18 13:24:05;;;;;;;6.03;3.28;;;;;;;;;;5013942;28;20037;-51
2021/11/18 13:26:32;;;;;;;4.28;3.88;;;;;;;;;;5013302;28;20030;-57
2021/11/18 13:29:22;;;;;;;4.00;3.70;;;;;;;;;;5015690;28;20518;-58
2021/11/18 13:32:00;;;;;;;3.92;3.05;;;;;;;;;;5009080;28;20104;-52
2021/11/18 13:34:32;;;;;;;12.63;3.72;;;;;;;;;;5011879;28;20482;-53
2021/11/18 13:36:59;;;;;;;4.78;3.55;;;;;;;;;;5009326;28;20068;-55
2021/11/18 13:40:09;;;;;;;3.45;3.00;;;;;;;;;;5011006;28;20039;-58
2021/11/18 13:42:45;;;;;;;3.80;3.17;;;;;;;;;;4998370;28;20049;-58
2021/11/18 13:45:16;;;;;;;6.57;3.55;;;;;;;;;;5009635;28;20087;-58
2021/11/18 13:47:55;;;;;;;4.25;3.28;;;;;;;;;;5009396;28;20387;-53
2021/11/18 13:50:32;;;;;;;4.03;3.63;;;;;;;;;;5013280;28;20050;-51
2021/11/18 13:53:05;;;;;;;3.90;3.35;;;;;;;;;;5013420;28;20061;-58
2021/11/18 13:55:49;;;;;;;5.28;4.03;;;;;;;;;;5014346;28;20070;-54
2021/11/18 13:58:39;;;;;;;6.30;3.35;;;;;;;;;;5007359;28;20034;-52
2021/11/18 14:01:09;;;;;;;6.15;4.45;;;;;;;;;;5007679;28;20046;-53
2021/11/18 14:03:40;;;;;;;7.38;4.70;;;;;;;;;;5011144;28;20034;-53
2021/11/18 14:06:08;;;;;;;;;;;;;;;;;;5009376;28;20061;-57
2021/11/18 14:08:43;;;;;;;8.93;2.88;;;;;;;;;;5015108;28;20327;-58
2021/11/18 14:11:31;;;;;;;5.28;3.58;;;;;;;;;;5015580;28;20056;-58
2021/11/18 14:14:15;;;;;;;3.00;2.65;;;;;;;;;;5017571;28;20070;-57
2021/11/18 14:16:42;;;;;;;3.00;2.70;;;;;;;;;;5021537;28;20039;-58
2021/11/18 14:19:07;;;;;;;3.60;3.30;;;;;;;;;;5015807;28;20533;-57
2021/11/18 14:21:39;;;;;;;3.15;2.80;;;;;;;;;;5018734;28;20112;-56
2021/11/18 14:24:10;;;;;;;5.50;3.50;;;;;;;;;;5019191;28;20116;-58
2021/11/18 14:26:51;;;;;;;3.88;3.00;;;;;;;;;;5019060;28;20048;-58
2021/11/18 14:29:37;;;;;;;3.55;3.05;;;;;;;;;;5014203;28;20041;-58
2021/11/18 14:32:46;;;;;;;5.60;3.47;;;;;;;;;;5015221;28;20038;-57
2021/11/18 14:35:17;;;;;;;3.78;3.10;;;;;;;;;;5016037;28;20084;-58
2021/11/18 14:37:49;;;;;;;;;;;;;;;;;;5020707;28;20045;-57
2021/11/18 14:40:44;;;;;;;6.00;3.70;;;;;;;;;;5016865;28;19910;-53
2021/11/18 14:43:18;;;;;;;5.78;3.65;;;;;;;;;;5018088;28;20037;-54
2021/11/18 14:45:47;;;;;;;3.78;3.15;;;;;;;;;;5016568;28;20042;-55
2021/11/18 14:48:27;;;;;;;3.42;3.00;;;;;;;;;;5016247;28;20046;-53
2021/11/18 14:51:30;;;;;;;4.40;3.65;;;;;;;;;;5015729;28;20029;-55
2021/11/18 14:53:55;;;;;;;17.42;2.88;;;;;;;;;;4919652;28;20583;-55
2021/11/18 14:56:23;;;;;;;3.45;2.92;;;;;;;;;;5006784;28;20045;-58
2021/11/18 14:59:01;;;;;;;3.35;2.67;;;;;;;;;;5019453;28;20083;-58
2021/11/18 15:01:37;;;;;;;5.00;3.45;;;;;;;;;;5014360;28;20045;-54
2021/11/18 15:04:07;;;;;;;3.42;2.65;;;;;;;;;;5016347;28;20053;-53
2021/11/18 15:06:39;;;;;;;5.13;3.78;;;;;;;;;;5015997;28;20047;-55
2021/11/18 15:09:09;;;;;;;3.08;2.78;;;;;;;;;;5014758;28;20541;-54
2021/11/18 15:11:36;;;;;;;7.60;3.57;;;;;;;;;;5016121;28;20674;-52